Time;durP1;ratioP1;P1;durP2;ratioP2;P2;SDS_P1;SDS_P2;PMS_P1;PMS_P2;Temp;Humidity;BMP_temperature;BMP_pressure;BME280_temperature;BME280_humidity;BME280_pressure;Samples;Min_cycle;Max_cycle;Signal;HPM_P1;HPM_P2
2022/12/13 00:00:41;;;;;;;84.97;34.22;;;-3.80;99.90;;;;;;6185973;23;20016;-81
2022/12/13 00:03:08;;;;;;;87.05;33.15;;;-3.90;99.90;;;;;;6162729;23;20365;-81
2022/12/13 00:05:41;;;;;;;79.03;33.63;;;-4.10;99.90;;;;;;6188336;23;20109;-79
2022/12/13 00:08:07;;;;;;;84.82;32.80;;;-4.10;99.90;;;;;;6164503;23;20086;-81
2022/12/13 00:10:33;;;;;;;87.63;32.88;;;-4.00;99.90;;;;;;6161432;23;20028;-80
2022/12/13 00:12:58;;;;;;;80.30;32.33;;;-4.10;99.90;;;;;;6184550;23;20009;-80
2022/12/13 00:15:24;;;;;;;83.85;33.25;;;-4.10;99.90;;;;;;6158799;23;20349;-81
2022/12/13 00:17:50;;;;;;;80.43;33.13;;;-4.20;99.90;;;;;;6186270;23;20017;-81
2022/12/13 00:20:15;;;;;;;88.70;34.08;;;-3.90;99.90;;;;;;6210325;23;20204;-81
2022/12/13 00:22:41;;;;;;;78.15;31.08;;;-4.20;99.90;;;;;;6162092;23;20020;-83
2022/12/13 00:25:07;;;;;;;81.22;32.35;;;-4.20;99.90;;;;;;6213354;23;20019;-80
2022/12/13 00:27:32;;;;;;;95.88;32.78;;;-4.10;99.90;;;;;;6162873;23;20020;-80
2022/12/13 00:29:58;;;;;;;82.05;32.03;;;-4.10;99.90;;;;;;6187410;23;20336;-82
2022/12/13 00:32:24;;;;;;;94.97;35.58;;;-4.10;99.90;;;;;;6162791;23;20062;-82
2022/12/13 00:34:49;;;;;;;88.78;33.70;;;-4.20;99.90;;;;;;6187721;23;20389;-82
2022/12/13 00:37:15;;;;;;;82.55;34.67;;;-4.30;99.90;;;;;;6187696;23;20399;-82
2022/12/13 00:39:40;;;;;;;90.13;36.97;;;-4.00;99.90;;;;;;6161662;23;20012;-79
2022/12/13 00:42:06;;;;;;;88.30;35.33;;;-4.10;99.90;;;;;;6161045;23;20464;-81
2022/12/13 00:44:32;;;;;;;101.25;36.05;;;-4.30;99.90;;;;;;6213073;23;20068;-80
2022/12/13 00:46:57;;;;;;;92.40;36.00;;;-4.00;99.90;;;;;;6165516;23;20092;-81
2022/12/13 00:49:25;;;;;;;83.03;33.58;;;-4.10;99.90;;;;;;6189115;23;20359;-81
2022/12/13 00:51:50;;;;;;;97.25;36.15;;;-4.30;99.90;;;;;;6175841;23;20069;-80
2022/12/13 00:54:16;;;;;;;93.55;34.42;;;-4.20;99.90;;;;;;6212832;23;20020;-83
2022/12/13 00:56:42;;;;;;;84.55;33.47;;;-4.20;99.90;;;;;;6213515;23;20009;-81
2022/12/13 00:59:12;;;;;;;83.05;31.63;;;-4.10;99.90;;;;;;6188547;23;20017;-81
2022/12/13 01:01:37;;;;;;;82.10;33.63;;;-4.10;99.90;;;;;;6213325;23;20336;-82
2022/12/13 01:04:05;;;;;;;91.57;34.05;;;-4.00;99.90;;;;;;6188459;23;20028;-82
2022/12/13 01:06:44;;;;;;;88.85;34.90;;;-4.00;99.90;;;;;;6188472;23;20103;-82
2022/12/13 01:09:24;;;;;;;79.53;31.70;;;-4.10;99.90;;;;;;6212432;23;20023;-83
2022/12/13 01:11:50;;;;;;;75.85;31.48;;;-4.40;99.90;;;;;;6212847;23;20004;-80
2022/12/13 01:14:18;;;;;;;76.07;31.92;;;-4.40;99.90;;;;;;6212804;23;20106;-82
2022/12/13 01:16:44;;;;;;;75.75;30.52;;;-4.20;99.90;;;;;;6214557;23;20337;-80
2022/12/13 01:19:10;;;;;;;72.50;30.73;;;-4.10;99.90;;;;;;6188824;23;20016;-81
2022/12/13 01:21:35;;;;;;;76.43;30.63;;;-4.50;99.90;;;;;;6215030;23;20062;-81
2022/12/13 01:24:02;;;;;;;70.32;29.05;;;-4.20;99.90;;;;;;6214797;23;20017;-82
2022/12/13 01:26:29;;;;;;;71.03;29.90;;;-4.40;99.90;;;;;;6188474;23;20066;-81
2022/12/13 01:28:56;;;;;;;73.75;31.15;;;-4.30;99.90;;;;;;6212832;23;20020;-84
2022/12/13 01:31:22;;;;;;;74.25;31.00;;;-4.30;99.90;;;;;;6213109;23;20008;-81
2022/12/13 01:33:48;;;;;;;69.55;29.83;;;-4.50;99.90;;;;;;6214891;23;20095;-81
2022/12/13 01:36:18;;;;;;;70.72;30.25;;;-4.60;99.90;;;;;;6190017;23;20095;-81
2022/12/13 01:38:44;;;;;;;68.15;29.60;;;-4.40;99.90;;;;;;6214238;23;20017;-81
2022/12/13 01:41:17;;;;;;;69.30;29.75;;;-4.70;99.90;;;;;;6191065;23;20017;-80
2022/12/13 01:43:43;;;;;;;72.45;29.88;;;-4.70;99.90;;;;;;6218688;23;20165;-78
2022/12/13 01:46:11;;;;;;;63.97;27.92;;;-4.60;99.90;;;;;;6188701;23;20020;-82
2022/12/13 01:48:43;;;;;;;73.57;28.35;;;-4.50;99.90;;;;;;6212549;23;20082;-83
2022/12/13 01:51:11;;;;;;;66.30;28.00;;;-4.70;99.90;;;;;;6209147;23;20128;-83
2022/12/13 01:53:41;;;;;;;69.90;28.25;;;-4.80;99.90;;;;;;6163387;23;20013;-80
2022/12/13 01:56:12;;;;;;;65.57;27.77;;;-4.60;99.90;;;;;;6187277;23;20013;-84
2022/12/13 01:58:40;;;;;;;62.38;27.20;;;-4.70;99.90;;;;;;6187246;23;20108;-82
2022/12/13 02:01:26;;;;;;;63.78;27.85;;;-4.90;99.90;;;;;;6166067;23;20020;-84
2022/12/13 02:03:51;;;;;;;61.72;27.08;;;-4.80;99.90;;;;;;6188486;23;20100;-82
2022/12/13 02:06:29;;;;;;;63.28;28.08;;;-4.90;99.90;;;;;;6188599;23;20321;-82
2022/12/13 02:08:56;;;;;;;60.38;27.85;;;-4.70;99.90;;;;;;6188506;23;20104;-82
2022/12/13 02:11:22;;;;;;;62.58;27.35;;;-4.80;99.90;;;;;;6164184;23;20075;-80
2022/12/13 02:13:47;;;;;;;58.58;27.05;;;-4.80;99.90;;;;;;6164650;23;20425;-81
2022/12/13 02:16:16;;;;;;;59.95;27.63;;;-5.00;99.90;;;;;;6165813;23;20012;-83
2022/12/13 02:18:44;;;;;;;61.35;28.52;;;-4.80;99.90;;;;;;6164065;23;20023;-80
2022/12/13 02:21:21;;;;;;;61.50;28.23;;;-5.10;99.90;;;;;;6190832;23;20017;-78
2022/12/13 02:24:11;;;;;;;67.50;28.85;;;-5.10;99.90;;;;;;6190055;23;20021;-82
2022/12/13 02:26:58;;;;;;;74.13;30.23;;;-4.90;99.90;;;;;;6167331;23;20083;-80
2022/12/13 02:29:53;;;;;;;77.97;31.48;;;-5.00;99.90;;;;;;6162680;23;20035;-80
2022/12/13 02:32:40;;;;;;;78.00;30.15;;;-4.80;99.90;;;;;;6187011;23;20096;-82
2022/12/13 02:35:14;;;;;;;76.13;30.50;;;-4.80;99.90;;;;;;6214009;23;20448;-84
2022/12/13 02:37:46;;;;;;;74.60;30.02;;;-4.90;99.90;;;;;;6187506;23;20024;-84
2022/12/13 02:40:46;;;;;;;75.75;30.95;;;-4.60;99.90;;;;;;6160848;23;20338;-83
2022/12/13 02:43:31;;;;;;;80.82;32.38;;;-4.70;99.90;;;;;;6040188;23;20026;-81
2022/12/13 02:46:01;;;;;;;69.82;29.83;;;-4.60;99.90;;;;;;6016773;23;20359;-81
2022/12/13 02:48:39;;;;;;;68.72;29.23;;;-4.60;99.90;;;;;;6063838;23;20031;-82
2022/12/13 02:51:08;;;;;;;69.30;29.08;;;-4.60;99.90;;;;;;6039712;23;20439;-80
2022/12/13 02:53:35;;;;;;;71.22;30.25;;;-4.70;99.90;;;;;;6040039;23;20067;-82
2022/12/13 02:56:01;;;;;;;75.60;30.52;;;-4.90;99.90;;;;;;6015592;23;20018;-80
2022/12/13 02:58:33;;;;;;;70.38;30.33;;;-4.50;99.90;;;;;;6063360;23;20450;-81
2022/12/13 03:01:17;;;;;;;78.60;31.10;;;-4.50;99.90;;;;;;6016337;23;20026;-80
2022/12/13 03:04:28;;;;;;;67.47;29.20;;;-4.90;99.90;;;;;;6039941;23;20029;-81
2022/12/13 03:07:16;;;;;;;67.57;27.98;;;-4.50;99.90;;;;;;5979436;24;20084;-81
2022/12/13 03:09:57;;;;;;;69.20;28.58;;;-4.80;99.90;;;;;;5978423;24;20197;-83
2022/12/13 03:19:03;;;;;;;63.53;27.85;;;-4.60;99.90;;;;;;6007906;23;20058;-80
2022/12/13 03:21:29;;;;;;;68.10;28.83;;;-4.70;99.90;;;;;;6068682;23;20015;-78
2022/12/13 03:23:55;;;;;;;61.65;27.92;;;-4.70;99.90;;;;;;6039618;23;20155;-79
2022/12/13 03:26:24;;;;;;;70.70;28.00;;;-4.70;99.90;;;;;;6039068;23;20015;-83
2022/12/13 03:28:50;;;;;;;68.57;29.48;;;-4.70;99.90;;;;;;6062715;23;20295;-81
2022/12/13 03:31:16;;;;;;;62.92;28.48;;;-4.90;99.90;;;;;;6063553;23;20079;-80
2022/12/13 03:33:42;;;;;;;64.85;28.30;;;-4.90;99.90;;;;;;6063350;23;20015;-81
2022/12/13 03:36:08;;;;;;;59.83;26.88;;;-4.90;99.90;;;;;;6015833;23;20067;-83
2022/12/13 03:38:35;;;;;;;64.65;27.80;;;-4.90;99.90;;;;;;6039913;23;20022;-84
2022/12/13 03:41:13;;;;;;;63.97;28.08;;;-4.90;99.90;;;;;;6019316;23;20030;-82
2022/12/13 03:43:40;;;;;;;62.05;28.25;;;-4.70;99.90;;;;;;6166592;23;20021;-81
2022/12/13 03:46:07;;;;;;;63.83;28.17;;;-4.90;99.90;;;;;;6167006;23;20056;-80
2022/12/13 03:48:33;;;;;;;63.88;28.30;;;-4.90;99.90;;;;;;6188183;23;20088;-82
2022/12/13 03:50:58;;;;;;;66.45;28.30;;;-4.80;99.90;;;;;;6190492;23;20016;-85
2022/12/13 03:53:25;;;;;;;61.83;27.67;;;-5.10;99.90;;;;;;6193548;23;20100;-82
2022/12/13 03:55:51;;;;;;;61.13;27.30;;;-4.80;99.90;;;;;;6217653;23;20444;-79
2022/12/13 03:58:17;;;;;;;65.93;28.50;;;-5.10;99.90;;;;;;6217481;23;20031;-83
2022/12/13 04:00:42;;;;;;;73.03;29.42;;;-4.90;99.90;;;;;;6217084;23;20095;-82
2022/12/13 04:03:08;;;;;;;68.25;28.10;;;-5.10;99.90;;;;;;6216891;23;20047;-82
2022/12/13 04:05:34;;;;;;;64.90;28.27;;;-4.90;99.90;;;;;;6217354;23;20101;-81
2022/12/13 04:08:00;;;;;;;66.13;27.70;;;-4.80;99.90;;;;;;6217228;23;20023;-79
2022/12/13 04:10:25;;;;;;;68.28;27.60;;;-5.00;99.90;;;;;;6217303;23;20016;-81
2022/12/13 04:15:35;;;;;;;62.00;27.13;;;-4.90;99.90;;;;;;6217821;23;20012;-83
2022/12/13 04:18:01;;;;;;;63.90;26.98;;;-4.90;99.90;;;;;;6217882;23;20016;-81
2022/12/13 04:20:26;;;;;;;58.78;26.33;;;-4.80;99.90;;;;;;6192494;23;20095;-83
2022/12/13 04:22:52;;;;;;;65.22;28.02;;;-4.90;99.90;;;;;;6217819;23;20013;-79
2022/12/13 04:25:18;;;;;;;65.30;27.90;;;-4.80;99.90;;;;;;6218780;23;20069;-80
2022/12/13 04:27:45;;;;;;;61.85;26.92;;;-5.20;99.90;;;;;;6193793;23;20054;-81
2022/12/13 04:30:11;;;;;;;67.07;28.70;;;-5.10;99.90;;;;;;6192951;23;20052;-80
2022/12/13 04:32:37;;;;;;;56.95;27.10;;;-4.80;99.90;;;;;;6192152;23;20016;-80
2022/12/13 04:35:03;;;;;;;64.22;27.00;;;-5.20;99.90;;;;;;6243338;23;20304;-83
2022/12/13 04:37:29;;;;;;;61.65;27.27;;;-4.90;99.90;;;;;;6216376;23;20007;-82
2022/12/13 04:39:55;;;;;;;63.65;27.15;;;-5.00;99.90;;;;;;6190609;23;20016;-82
2022/12/13 04:42:21;;;;;;;63.72;26.75;;;-5.10;99.90;;;;;;6192770;23;20070;-80
2022/12/13 04:44:48;;;;;;;65.93;27.45;;;-5.10;99.90;;;;;;6244434;23;20035;-80
2022/12/13 04:47:14;;;;;;;63.22;27.15;;;-5.20;99.90;;;;;;6193046;23;20042;-82
2022/12/13 04:49:40;;;;;;;60.83;27.50;;;-4.90;99.90;;;;;;6245710;23;20028;-80
2022/12/13 04:52:06;;;;;;;55.88;27.27;;;-5.10;99.90;;;;;;6189626;23;20013;-84
2022/12/13 04:54:32;;;;;;;59.38;26.30;;;-5.20;99.90;;;;;;6214913;23;20020;-83
2022/12/13 04:56:58;;;;;;;69.63;26.30;;;-5.00;99.90;;;;;;6192040;23;20412;-81
2022/12/13 04:59:24;;;;;;;59.92;26.40;;;-4.90;99.90;;;;;;6215259;23;20028;-83
2022/12/13 05:01:49;;;;;;;58.20;25.60;;;-5.10;99.90;;;;;;6189909;23;20081;-82
2022/12/13 05:04:15;;;;;;;62.63;27.20;;;-5.20;99.90;;;;;;6212128;23;20083;-81
2022/12/13 05:06:41;;;;;;;64.85;26.83;;;-5.30;99.90;;;;;;6186130;23;20024;-83
2022/12/13 05:09:08;;;;;;;56.65;26.10;;;-5.20;99.90;;;;;;6212013;23;20025;-81
2022/12/13 05:11:33;;;;;;;55.30;25.08;;;-5.20;99.90;;;;;;6212602;23;20304;-84
2022/12/13 05:13:59;;;;;;;59.17;26.42;;;-5.20;99.90;;;;;;6213921;23;20017;-82
2022/12/13 05:16:25;;;;;;;57.45;26.55;;;-5.20;99.90;;;;;;6214348;23;20013;-83
2022/12/13 05:18:51;;;;;;;52.90;26.08;;;-5.20;99.90;;;;;;6188034;23;20091;-81
2022/12/13 05:21:16;;;;;;;56.58;26.50;;;-5.20;99.90;;;;;;6213644;23;20095;-80
2022/12/13 05:23:42;;;;;;;57.53;25.17;;;-5.20;99.90;;;;;;6214775;23;20012;-80
2022/12/13 05:26:08;;;;;;;55.28;25.60;;;-5.30;99.90;;;;;;6212587;23;20438;-80
2022/12/13 05:28:33;;;;;;;61.33;26.10;;;-5.00;99.90;;;;;;6213675;23;20056;-82
2022/12/13 05:34:30;;;;;;;58.70;26.23;;;-5.30;99.90;;;;;;6219187;23;20119;-81
2022/12/13 05:36:56;;;;;;;57.88;26.80;;;-5.00;99.90;;;;;;6188932;23;20031;-82
2022/12/13 05:39:21;;;;;;;60.85;26.17;;;-5.20;99.90;;;;;;6214228;23;20323;-81
2022/12/13 05:41:47;;;;;;;56.65;26.42;;;-5.30;99.90;;;;;;6213922;23;20022;-83
2022/12/13 05:44:13;;;;;;;62.92;26.40;;;-5.10;99.90;;;;;;6188499;23;20044;-78
2022/12/13 05:46:39;;;;;;;58.55;27.25;;;-5.20;99.90;;;;;;6213422;23;20016;-84
2022/12/13 05:49:08;;;;;;;56.90;27.70;;;-5.30;99.90;;;;;;6213661;23;20021;-81
2022/12/13 05:51:34;;;;;;;53.78;25.98;;;-5.00;99.90;;;;;;6225192;23;20521;-80
2022/12/13 05:54:01;;;;;;;55.88;26.42;;;-5.30;99.90;;;;;;6193137;23;20020;-83
2022/12/13 05:56:27;;;;;;;56.63;26.50;;;-5.30;99.90;;;;;;6192441;23;20054;-83
2022/12/13 05:58:53;;;;;;;52.88;26.33;;;-5.30;99.90;;;;;;6192923;23;20339;-81
2022/12/13 06:01:20;;;;;;;59.92;26.30;;;-5.00;99.90;;;;;;6216988;23;20111;-83
2022/12/13 06:03:46;;;;;;;59.95;27.20;;;-5.00;99.90;;;;;;6192774;23;20027;-81
2022/12/13 06:06:12;;;;;;;54.30;26.58;;;-5.20;99.90;;;;;;6244859;23;20012;-83
2022/12/13 06:08:38;;;;;;;58.45;26.00;;;-5.20;99.90;;;;;;6192874;23;20022;-83
2022/12/13 06:11:05;;;;;;;58.30;27.92;;;-5.10;99.90;;;;;;6191398;23;20008;-83
2022/12/13 06:13:31;;;;;;;55.85;26.38;;;-5.30;99.90;;;;;;6192343;23;20019;-78
2022/12/13 06:16:04;;;;;;;55.92;26.70;;;-5.30;99.90;;;;;;6192073;23;20012;-82
2022/12/13 06:18:33;;;;;;;52.63;26.23;;;-5.00;99.90;;;;;;6193155;22;20016;-83
2022/12/13 06:21:02;;;;;;;56.17;26.17;;;-5.30;99.90;;;;;;6218884;23;20016;-81
2022/12/13 06:23:30;;;;;;;57.08;27.33;;;-5.30;99.90;;;;;;6193029;23;20047;-79
2022/12/13 06:25:56;;;;;;;56.35;26.77;;;-5.10;99.90;;;;;;6192505;23;20325;-82
2022/12/13 06:28:22;;;;;;;59.88;27.25;;;-5.30;99.90;;;;;;6210477;23;20027;-81
2022/12/13 06:30:51;;;;;;;53.60;26.80;;;-5.00;99.90;;;;;;6234235;23;20016;-80
2022/12/13 06:33:20;;;;;;;58.22;26.92;;;-5.00;99.90;;;;;;6210333;23;20027;-79
2022/12/13 06:35:46;;;;;;;58.17;26.90;;;-5.20;99.90;;;;;;6205403;23;20045;-80
2022/12/13 06:38:13;;;;;;;61.67;27.58;;;-5.30;99.90;;;;;;6232315;23;20012;-81
2022/12/13 06:40:39;;;;;;;56.67;26.50;;;-5.00;99.90;;;;;;6261441;23;20328;-79
2022/12/13 06:43:04;;;;;;;62.03;27.42;;;-5.20;99.90;;;;;;6228389;23;20008;-81
2022/12/13 06:45:30;;;;;;;57.10;26.58;;;-5.20;99.90;;;;;;6193314;23;20019;-80
2022/12/13 06:47:56;;;;;;;59.22;26.85;;;-4.90;99.90;;;;;;6243710;23;20028;-80
2022/12/13 06:50:22;;;;;;;54.40;26.80;;;-4.90;99.90;;;;;;6217265;23;20670;-80
2022/12/13 06:52:48;;;;;;;60.22;27.58;;;-5.30;99.90;;;;;;6192166;23;20092;-80
2022/12/13 06:55:14;;;;;;;59.03;27.95;;;-5.20;99.90;;;;;;6189495;23;20103;-82
2022/12/13 06:57:40;;;;;;;59.63;26.27;;;-5.10;99.90;;;;;;6192117;23;20494;-78
2022/12/13 07:00:40;;;;;;;68.07;26.95;;;-5.10;99.90;;;;;;6244421;23;20451;-81
2022/12/13 07:03:05;;;;;;;57.85;26.27;;;-4.90;99.90;;;;;;6198205;23;20015;-78
2022/12/13 07:05:31;;;;;;;56.25;26.42;;;-5.10;99.90;;;;;;6228678;23;20016;-81
2022/12/13 07:07:56;;;;;;;53.25;27.02;;;-5.00;99.90;;;;;;6219630;23;20455;-81
2022/12/13 07:10:22;;;;;;;53.47;26.10;;;-5.20;99.90;;;;;;6192442;23;20044;-79
2022/12/13 07:12:48;;;;;;;59.00;26.75;;;-4.90;99.90;;;;;;6213509;23;20016;-81
2022/12/13 07:15:14;;;;;;;53.63;25.92;;;-5.30;99.90;;;;;;6214520;23;20012;-82
2022/12/13 07:17:41;;;;;;;52.45;25.30;;;-4.90;99.90;;;;;;6190337;23;20099;-82
2022/12/13 07:20:08;;;;;;;58.25;25.88;;;-5.00;99.90;;;;;;6189367;23;20175;-84
2022/12/13 07:22:34;;;;;;;56.65;26.05;;;-5.00;99.90;;;;;;6188897;23;20336;-83
2022/12/13 07:25:02;;;;;;;54.00;26.25;;;-5.00;99.90;;;;;;6189126;23;20055;-82
2022/12/13 07:27:27;;;;;;;57.80;26.85;;;-5.10;99.90;;;;;;6215752;23;20016;-83
2022/12/13 07:29:53;;;;;;;55.25;26.13;;;-5.10;99.90;;;;;;6215729;23;20087;-81
2022/12/13 07:33:14;;;;;;;52.75;26.33;;;-5.10;99.90;;;;;;6216189;23;20012;-82
2022/12/13 07:35:40;;;;;;;55.80;26.63;;;-5.30;99.90;;;;;;6217441;23;20093;-78
2022/12/13 07:38:07;;;;;;;54.08;26.85;;;-5.20;99.90;;;;;;6216873;23;20483;-82
2022/12/13 07:40:34;;;;;;;57.63;26.05;;;-5.00;99.90;;;;;;6193381;23;20016;-80
2022/12/13 07:43:00;;;;;;;53.33;26.35;;;-5.10;99.90;;;;;;6217856;23;20054;-80
2022/12/13 07:45:26;;;;;;;55.08;26.50;;;-5.30;99.90;;;;;;6214006;23;20470;-78
2022/12/13 07:47:51;;;;;;;61.72;26.70;;;-5.00;99.90;;;;;;6242802;23;20013;-80
2022/12/13 07:50:19;;;;;;;53.90;26.58;;;-5.30;99.90;;;;;;6189749;23;20054;-81
2022/12/13 07:52:47;;;;;;;55.25;25.98;;;-5.20;99.90;;;;;;6185814;23;20047;-80
2022/12/13 07:55:13;;;;;;;54.72;27.02;;;-5.00;99.90;;;;;;6209761;23;20389;-79
2022/12/13 07:57:39;;;;;;;55.33;26.90;;;-5.20;99.90;;;;;;6209443;23;20017;-79
2022/12/13 08:00:06;;;;;;;53.10;25.45;;;-5.20;99.90;;;;;;6186435;23;20019;-78
2022/12/13 08:02:33;;;;;;;57.53;26.17;;;-5.20;99.90;;;;;;6187547;23;20023;-78
2022/12/13 08:04:59;;;;;;;53.78;26.38;;;-5.20;99.90;;;;;;6188891;23;20055;-77
2022/12/13 08:07:24;;;;;;;59.65;26.25;;;-4.90;99.90;;;;;;6193727;23;20020;-77
2022/12/13 08:09:50;;;;;;;54.65;26.20;;;-4.90;99.90;;;;;;6189336;23;20328;-82
2022/12/13 08:12:16;;;;;;;60.03;26.58;;;-5.00;99.90;;;;;;6186299;23;20160;-78
2022/12/13 08:14:43;;;;;;;53.10;25.45;;;-5.00;99.90;;;;;;6211652;23;20032;-80
2022/12/13 08:17:08;;;;;;;58.35;26.80;;;-5.10;99.90;;;;;;6208254;23;20131;-81
2022/12/13 08:19:34;;;;;;;52.70;26.98;;;-4.90;99.90;;;;;;6181789;23;20012;-79
2022/12/13 08:22:00;;;;;;;54.55;26.65;;;-5.10;99.90;;;;;;6182227;23;20013;-75
2022/12/13 08:24:27;;;;;;;54.03;26.92;;;-4.70;99.90;;;;;;6182792;23;20059;-78
2022/12/13 08:26:55;;;;;;;63.42;27.63;;;-4.70;99.90;;;;;;6209991;23;20027;-79
2022/12/13 08:29:21;;;;;;;63.10;27.25;;;-4.70;99.90;;;;;;6182658;23;20452;-80
2022/12/13 08:31:47;;;;;;;54.05;26.80;;;-4.80;99.90;;;;;;6210502;23;20087;-80
2022/12/13 08:34:12;;;;;;;58.00;27.25;;;-4.50;99.90;;;;;;6211866;23;20012;-80
2022/12/13 08:36:38;;;;;;;58.30;27.98;;;-4.60;99.90;;;;;;6208211;23;20092;-80
2022/12/13 08:39:04;;;;;;;61.58;28.48;;;-4.50;99.90;;;;;;6210589;23;20027;-80
2022/12/13 08:41:30;;;;;;;58.53;27.75;;;-4.40;99.90;;;;;;6185678;23;20016;-82
2022/12/13 08:43:56;;;;;;;59.60;27.58;;;-4.40;99.90;;;;;;6213311;23;20063;-82
2022/12/13 08:46:21;;;;;;;60.33;28.42;;;-4.70;99.90;;;;;;6189758;23;20016;-85
2022/12/13 08:48:47;;;;;;;60.65;28.52;;;-4.40;99.90;;;;;;6215853;23;20021;-79
2022/12/13 08:51:14;;;;;;;60.22;28.08;;;-4.40;99.90;;;;;;6214250;23;20021;-78
2022/12/13 08:53:40;;;;;;;61.22;27.67;;;-4.60;99.90;;;;;;6214615;23;20020;-78
2022/12/13 08:56:11;;;;;;;59.33;27.45;;;-4.30;99.90;;;;;;6187817;23;20031;-82
2022/12/13 08:58:39;;;;;;;60.45;29.35;;;-4.20;99.90;;;;;;6185962;23;20027;-80
2022/12/13 09:01:06;;;;;;;65.32;30.25;;;-4.40;99.90;;;;;;6208796;23;20020;-80
2022/12/13 09:03:32;;;;;;;66.93;28.88;;;-4.10;99.90;;;;;;6184994;23;20340;-83
2022/12/13 09:06:09;;;;;;;64.57;29.38;;;-4.30;99.90;;;;;;6208455;23;20089;-79
2022/12/13 09:08:36;;;;;;;59.53;28.08;;;-4.20;99.90;;;;;;6183785;23;20016;-80
2022/12/13 09:11:03;;;;;;;63.00;29.75;;;-4.10;99.90;;;;;;6208253;23;20336;-80
2022/12/13 09:13:31;;;;;;;62.70;28.52;;;-4.00;99.90;;;;;;6185094;23;20015;-82
2022/12/13 09:15:58;;;;;;;59.35;29.92;;;-4.20;99.90;;;;;;6208818;23;20340;-79
2022/12/13 09:18:24;;;;;;;63.95;29.50;;;-3.90;99.90;;;;;;6184187;23;20024;-82
2022/12/13 09:20:50;;;;;;;59.58;29.52;;;-4.00;99.90;;;;;;6213855;23;20057;-79
2022/12/13 09:23:16;;;;;;;57.85;30.02;;;-3.70;99.90;;;;;;6213103;23;20032;-80
2022/12/13 09:25:41;;;;;;;54.63;29.33;;;-3.70;99.90;;;;;;6188576;23;20255;-79
2022/12/13 09:28:10;;;;;;;66.63;30.38;;;-3.70;99.90;;;;;;6189039;23;20350;-84
2022/12/13 09:34:17;;;;;;;66.10;30.10;;;-3.90;99.90;;;;;;6219139;23;20462;-79
2022/12/13 09:36:42;;;;;;;65.55;30.90;;;-3.50;99.90;;;;;;6215014;23;20039;-80
2022/12/13 09:39:10;;;;;;;63.92;30.77;;;-3.40;99.90;;;;;;6214133;23;20302;-79
2022/12/13 09:41:41;;;;;;;66.22;30.60;;;-3.50;99.90;;;;;;6212148;23;20044;-78
2022/12/13 09:44:27;;;;;;;64.15;31.45;;;-3.20;99.90;;;;;;6187507;23;20110;-81
2022/12/13 09:47:33;;;;;;;64.05;31.15;;;-3.30;99.90;;;;;;6189168;23;20071;-77
2022/12/13 09:50:01;;;;;;;;;;;-3.20;99.90;;;;;;6213966;23;20017;-78
2022/12/13 09:52:35;;;;;;;65.20;31.27;;;-3.10;99.90;;;;;;6172124;23;19974;-79
2022/12/13 09:55:01;;;;;;;59.70;30.35;;;-3.00;99.90;;;;;;6186648;23;20023;-76
2022/12/13 09:57:31;;;;;;;63.92;31.70;;;-3.20;99.90;;;;;;6161857;23;20062;-78
2022/12/13 09:59:57;;;;;;;69.35;32.72;;;-2.90;99.90;;;;;;6136747;23;20074;-79
2022/12/13 10:02:32;;;;;;;67.68;32.85;;;-3.10;99.90;;;;;;6186392;23;20084;-78
2022/12/13 10:05:14;;;;;;;62.25;31.45;;;-2.80;99.90;;;;;;6187601;23;20079;-82
2022/12/13 10:07:41;;;;;;;70.55;33.42;;;-3.00;99.90;;;;;;6162208;23;20159;-81
2022/12/13 10:10:11;;;;;;;66.05;31.23;;;-2.80;99.90;;;;;;6134084;23;20023;-77
2022/12/13 10:12:38;;;;;;;72.63;33.28;;;-2.70;99.90;;;;;;6187444;23;20016;-79
2022/12/13 10:15:05;;;;;;;63.58;32.63;;;-2.90;99.90;;;;;;6163184;23;20473;-77
2022/12/13 10:17:36;;;;;;;68.95;34.15;;;-2.80;99.90;;;;;;6163047;23;20386;-78
2022/12/13 10:20:03;;;;;;;70.43;34.05;;;-2.90;99.90;;;;;;6214860;23;20014;-77
2022/12/13 10:22:31;;;;;;;66.70;30.52;;;-2.90;99.90;;;;;;6162832;23;20098;-77
2022/12/13 10:25:02;;;;;;;79.00;32.38;;;-2.60;99.90;;;;;;6163428;23;20290;-80
2022/12/13 10:27:32;;;;;;;66.65;32.53;;;-2.80;99.90;;;;;;6164057;23;20496;-81
2022/12/13 10:30:07;;;;;;;63.13;31.35;;;-2.80;99.90;;;;;;6187928;23;20027;-79
2022/12/13 10:32:47;;;;;;;70.18;31.98;;;-2.50;99.90;;;;;;6163983;23;20009;-80
2022/12/13 10:35:35;;;;;;;64.45;32.65;;;-2.40;99.90;;;;;;6162129;23;20012;-81
2022/12/13 10:38:15;;;;;;;63.40;31.45;;;-2.40;99.90;;;;;;6188786;23;20076;-78
2022/12/13 10:40:47;;;;;;;67.90;33.42;;;-2.70;99.90;;;;;;6165604;23;20475;-80
2022/12/13 10:43:19;;;;;;;69.80;31.95;;;-2.30;99.90;;;;;;6187786;23;20024;-80
2022/12/13 10:45:56;;;;;;;61.30;31.67;;;-2.30;99.90;;;;;;6185329;23;20437;-78
2022/12/13 10:48:48;;;;;;;73.10;34.75;;;-2.40;99.90;;;;;;6212056;23;20096;-79
2022/12/13 10:51:16;;;;;;;68.78;33.90;;;-2.30;99.90;;;;;;6187006;22;20088;-82
2022/12/13 10:53:57;;;;;;;70.15;33.53;;;-2.40;99.90;;;;;;6192288;23;20012;-78
2022/12/13 10:56:36;;;;;;;69.97;34.83;;;-2.30;99.90;;;;;;6228642;23;20012;-77
2022/12/13 10:59:19;;;;;;;70.25;34.08;;;-1.90;99.90;;;;;;6237121;23;20030;-79
2022/12/13 11:02:23;;;;;;;70.07;35.03;;;-2.20;99.90;;;;;;6210893;23;20056;-79
2022/12/13 11:04:49;;;;;;;70.78;34.45;;;-2.00;99.90;;;;;;6231196;23;20055;-75
2022/12/13 11:07:28;;;;;;;63.92;33.70;;;-1.80;99.90;;;;;;6233155;23;20081;-75
2022/12/13 11:09:54;;;;;;;67.95;33.92;;;-1.90;99.90;;;;;;6229259;23;20008;-80
2022/12/13 11:12:26;;;;;;;65.93;33.28;;;-1.60;99.90;;;;;;6215912;23;20507;-79
2022/12/13 11:15:02;;;;;;;72.72;34.30;;;-1.70;99.90;;;;;;6189108;23;20016;-79
2022/12/13 11:17:31;;;;;;;61.90;32.60;;;-1.30;99.90;;;;;;6240131;23;20134;-78
2022/12/13 11:20:01;;;;;;;58.90;32.05;;;-1.60;99.90;;;;;;6213080;23;20020;-82
2022/12/13 11:22:33;;;;;;;64.65;32.55;;;-1.20;99.90;;;;;;6209304;23;20066;-82
2022/12/13 11:25:04;;;;;;;60.28;31.33;;;-1.10;99.90;;;;;;6207356;23;20105;-82
2022/12/13 11:27:51;;;;;;;57.88;31.67;;;-1.30;99.90;;;;;;6213343;23;20020;-80
2022/12/13 11:31:30;;;;;;;54.97;28.52;;;-1.30;99.90;;;;;;6188416;23;20016;-81
2022/12/13 11:34:28;;;;;;;54.88;28.98;;;-1.20;99.90;;;;;;6041996;23;20375;-79
2022/12/13 11:37:05;;;;;;;51.58;27.70;;;-1.20;99.90;;;;;;6042435;23;20015;-81
2022/12/13 11:39:35;;;;;;;50.80;28.38;;;-1.00;99.90;;;;;;6064359;23;20018;-81
2022/12/13 11:42:41;;;;;;;47.85;26.60;;;-1.10;99.90;;;;;;6089927;23;20098;-78
2022/12/13 11:45:12;;;;;;;44.17;24.50;;;-0.70;99.90;;;;;;5951498;24;20038;-82
2022/12/13 11:48:29;;;;;;;46.20;25.35;;;-0.80;99.90;;;;;;5952329;24;20020;-80
2022/12/13 11:50:55;;;;;;;46.40;26.42;;;-0.90;99.90;;;;;;5870308;24;20120;-80
2022/12/13 11:53:47;;;;;;;48.20;26.50;;;-0.90;99.90;;;;;;5874395;24;20025;-82
2022/12/13 11:56:24;;;;;;;47.10;25.70;;;-0.70;99.90;;;;;;5899234;24;20851;-80
2022/12/13 11:59:03;;;;;;;48.55;25.63;;;-0.80;99.90;;;;;;5900441;24;20143;-79
2022/12/13 12:01:51;;;;;;;42.58;24.55;;;-0.40;99.90;;;;;;5878052;23;20020;-81
2022/12/13 12:04:56;;;;;;;49.58;24.92;;;-0.50;99.90;;;;;;5847223;24;20018;-82
2022/12/13 12:07:26;;;;;;;39.58;23.02;;;-0.40;99.90;;;;;;5796772;24;20018;-80
2022/12/13 12:09:59;;;;;;;44.95;23.80;;;-0.50;99.90;;;;;;5842828;24;20021;-81
2022/12/13 12:12:32;;;;;;;42.60;23.70;;;-0.30;99.90;;;;;;5845175;24;20138;-80
2022/12/13 12:15:19;;;;;;;40.42;22.42;;;-0.30;99.90;;;;;;5821746;24;20126;-82
2022/12/13 12:17:45;;;;;;;36.30;21.40;;;-0.30;99.90;;;;;;5842091;24;20387;-83
2022/12/13 12:20:18;;;;;;;39.38;21.92;;;-0.30;99.90;;;;;;5846112;24;20014;-79
2022/12/13 12:23:08;;;;;;;36.13;20.55;;;-0.30;99.90;;;;;;5873252;24;20016;-80
2022/12/13 12:26:01;;;;;;;35.30;19.58;;;-0.40;99.90;;;;;;5944803;24;20016;-77
2022/12/13 12:28:41;;;;;;;36.67;19.17;;;-0.40;99.90;;;;;;5988775;24;20020;-82
2022/12/13 12:31:34;;;;;;;38.10;20.52;;;-0.40;99.90;;;;;;5955839;24;20023;-81
2022/12/13 12:34:20;;;;;;;34.15;19.92;;;-0.40;99.90;;;;;;5980113;24;20034;-83
2022/12/13 12:36:57;;;;;;;33.20;18.08;;;-0.40;99.90;;;;;;5956214;24;20099;-81
2022/12/13 12:39:26;;;;;;;27.88;17.30;;;-0.30;99.90;;;;;;6067321;23;20026;-84
2022/12/13 12:42:20;;;;;;;34.67;19.92;;;-0.20;99.90;;;;;;6181118;23;20047;-82
2022/12/13 12:44:49;;;;;;;37.33;19.80;;;-0.20;99.90;;;;;;6163137;23;20028;-80
2022/12/13 12:48:11;;;;;;;30.65;17.30;;;-0.40;99.90;;;;;;6162885;23;20447;-80
2022/12/13 12:50:52;;;;;;;29.60;18.15;;;-0.30;99.90;;;;;;6014882;23;20023;-82
2022/12/13 12:53:27;;;;;;;31.15;17.38;;;-0.20;99.90;;;;;;6063366;23;20094;-81
2022/12/13 12:56:02;;;;;;;26.23;16.27;;;-0.20;99.90;;;;;;6037850;23;20026;-81
2022/12/13 12:58:27;;;;;;;28.65;16.92;;;-0.30;99.90;;;;;;6061439;23;20070;-80
2022/12/13 13:00:59;;;;;;;27.77;16.27;;;-0.30;99.90;;;;;;6038490;23;20022;-81
2022/12/13 13:03:28;;;;;;;28.13;16.63;;;-0.40;99.90;;;;;;6014445;23;20159;-82